Time;durP1;ratioP1;P1;durP2;ratioP2;P2;SDS_P1;SDS_P2;PMS_P1;PMS_P2;Temp;Humidity;BMP_temperature;BMP_pressure;BME280_temperature;BME280_humidity;BME280_pressure;Samples;Min_cycle;Max_cycle;Signal;HPM_P1;HPM_P2
2022/09/22 00:01:02;;;;;;;2.53;1.70;;;;;;;;;;5085272;28;20192;-79
2022/09/22 00:03:36;;;;;;;3.47;2.73;;;;;;;;;;5064284;28;20229;-78
2022/09/22 00:06:03;;;;;;;8.10;4.23;;;;;;;;;;5078627;28;20189;-78
2022/09/22 00:08:31;;;;;;;5.93;4.27;;;;;;;;;;5084812;28;20201;-78
2022/09/22 00:11:00;;;;;;;5.13;3.20;;;;;;;;;;5087526;28;20204;-78
2022/09/22 00:13:27;;;;;;;3.30;2.50;;;;;;;;;;5078662;28;20187;-78
2022/09/22 00:15:53;;;;;;;2.37;2.17;;;;;;;;;;5081894;28;20199;-78
2022/09/22 00:18:19;;;;;;;3.30;2.40;;;;;;;;;;5089484;28;20180;-79
2022/09/22 00:20:45;;;;;;;5.03;3.10;;;;;;;;;;5085630;28;20257;-78
2022/09/22 00:23:11;;;;;;;2.87;2.20;;;;;;;;;;5074940;28;20169;-78
2022/09/22 00:25:40;;;;;;;2.67;2.10;;;;;;;;;;5078499;28;20169;-78
2022/09/22 00:28:06;;;;;;;2.53;1.63;;;;;;;;;;5070627;28;20173;-78
2022/09/22 00:30:33;;;;;;;2.07;1.80;;;;;;;;;;5081995;28;20253;-78
2022/09/22 00:32:59;;;;;;;1.93;1.73;;;;;;;;;;5090520;28;20168;-79
2022/09/22 00:35:25;;;;;;;1.60;1.50;;;;;;;;;;5089496;28;20181;-78
2022/09/22 00:37:51;;;;;;;3.43;1.40;;;;;;;;;;5065632;28;20168;-78
2022/09/22 00:40:17;;;;;;;3.37;1.50;;;;;;;;;;5078441;28;20209;-78
2022/09/22 00:42:44;;;;;;;1.60;1.50;;;;;;;;;;5088289;28;20698;-78
2022/09/22 00:45:11;;;;;;;1.63;1.50;;;;;;;;;;5083339;28;20184;-79
2022/09/22 00:47:43;;;;;;;1.50;1.40;;;;;;;;;;5088558;28;20188;-78
2022/09/22 00:50:14;;;;;;;1.40;1.30;;;;;;;;;;5089052;28;20204;-79
2022/09/22 00:52:47;;;;;;;1.60;1.40;;;;;;;;;;5089565;28;20258;-78
2022/09/22 00:55:26;;;;;;;1.60;1.50;;;;;;;;;;5057409;28;20763;-78
2022/09/22 00:57:53;;;;;;;2.50;2.10;;;;;;;;;;5071943;28;20595;-79
2022/09/22 01:00:19;;;;;;;2.27;2.07;;;;;;;;;;5088238;28;20200;-79
2022/09/22 01:02:48;;;;;;;2.73;2.10;;;;;;;;;;5076988;28;20239;-79
2022/09/22 01:05:14;;;;;;;2.63;2.03;;;;;;;;;;5087265;28;20863;-78
2022/09/22 01:07:41;;;;;;;3.20;2.10;;;;;;;;;;5079876;28;20528;-78
2022/09/22 01:10:08;;;;;;;3.07;2.30;;;;;;;;;;5088017;28;20273;-78
2022/09/22 01:12:35;;;;;;;3.03;2.30;;;;;;;;;;5080832;28;20234;-78
2022/09/22 01:15:01;;;;;;;3.10;2.50;;;;;;;;;;5087079;28;20849;-78
2022/09/22 01:17:30;;;;;;;2.40;2.20;;;;;;;;;;5085217;28;20177;-78
2022/09/22 01:20:15;;;;;;;2.27;2.07;;;;;;;;;;5087021;28;20324;-78
2022/09/22 01:23:00;;;;;;;2.40;2.10;;;;;;;;;;5065509;28;20276;-78
2022/09/22 01:25:45;;;;;;;3.30;2.20;;;;;;;;;;5074546;28;20230;-78
2022/09/22 01:28:30;;;;;;;3.10;2.10;;;;;;;;;;5088181;28;20524;-78
2022/09/22 01:31:04;;;;;;;3.20;2.23;;;;;;;;;;5082898;28;20212;-79
2022/09/22 01:33:39;;;;;;;2.20;2.00;;;;;;;;;;5074699;28;20172;-79
2022/09/22 01:36:11;;;;;;;2.23;1.90;;;;;;;;;;5055027;28;20600;-78
2022/09/22 01:38:44;;;;;;;2.40;2.07;;;;;;;;;;5084354;28;20661;-78
2022/09/22 01:41:19;;;;;;;2.17;1.90;;;;;;;;;;5062598;28;20237;-79
2022/09/22 01:43:50;;;;;;;2.33;1.87;;;;;;;;;;5070213;28;20532;-78
2022/09/22 01:46:20;;;;;;;2.90;2.10;;;;;;;;;;5045925;28;20663;-78
2022/09/22 01:48:48;;;;;;;3.70;2.10;;;;;;;;;;5083607;28;20267;-78
2022/09/22 01:51:17;;;;;;;5.03;2.20;;;;;;;;;;5084189;28;20177;-78
2022/09/22 01:53:47;;;;;;;3.13;2.00;;;;;;;;;;5071202;28;20171;-78
2022/09/22 01:56:14;;;;;;;3.13;1.90;;;;;;;;;;5074033;28;20177;-78
2022/09/22 01:58:44;;;;;;;3.80;2.10;;;;;;;;;;5051004;28;20220;-78
2022/09/22 02:01:16;;;;;;;3.80;2.10;;;;;;;;;;5064073;28;20242;-78
2022/09/22 02:03:48;;;;;;;2.53;2.20;;;;;;;;;;5034957;28;20189;-78
2022/09/22 02:06:20;;;;;;;3.17;2.37;;;;;;;;;;5067122;28;20184;-78
2022/09/22 02:09:06;;;;;;;2.50;2.20;;;;;;;;;;5059331;28;20218;-78
2022/09/22 02:11:32;;;;;;;3.97;2.40;;;;;;;;;;5067628;28;20177;-78
2022/09/22 02:13:59;;;;;;;2.87;2.27;;;;;;;;;;5067394;28;20184;-78
2022/09/22 02:16:26;;;;;;;5.00;2.27;;;;;;;;;;5086562;28;20184;-78
2022/09/22 02:19:13;;;;;;;2.60;2.23;;;;;;;;;;5087693;28;20200;-78
2022/09/22 02:21:41;;;;;;;2.73;2.23;;;;;;;;;;5086028;28;20199;-78
2022/09/22 02:24:11;;;;;;;3.50;2.67;;;;;;;;;;5088901;28;20169;-78
2022/09/22 02:26:37;;;;;;;8.07;2.80;;;;;;;;;;5083023;28;20171;-78
2022/09/22 02:29:08;;;;;;;3.53;2.90;;;;;;;;;;5080744;28;20276;-78
2022/09/22 02:31:36;;;;;;;3.40;2.60;;;;;;;;;;5076274;28;20647;-78
2022/09/22 02:34:03;;;;;;;2.93;2.40;;;;;;;;;;5075505;28;20180;-78
2022/09/22 02:36:41;;;;;;;3.03;2.73;;;;;;;;;;5071896;28;20179;-78
2022/09/22 02:39:26;;;;;;;3.10;2.43;;;;;;;;;;5076767;28;20200;-78
2022/09/22 02:42:00;;;;;;;2.97;2.50;;;;;;;;;;5062351;28;20553;-78
2022/09/22 02:44:31;;;;;;;3.03;2.73;;;;;;;;;;5084126;28;20184;-78
2022/09/22 02:47:09;;;;;;;4.00;2.90;;;;;;;;;;5082639;28;20685;-78
2022/09/22 02:49:35;;;;;;;3.77;3.10;;;;;;;;;;5064157;28;20250;-78
2022/09/22 02:52:02;;;;;;;4.17;2.97;;;;;;;;;;5064371;28;20594;-78
2022/09/22 02:54:28;;;;;;;3.27;2.60;;;;;;;;;;5069868;28;21007;-78
2022/09/22 02:56:54;;;;;;;3.80;2.60;;;;;;;;;;5079407;28;20214;-78
2022/09/22 02:59:20;;;;;;;3.27;2.97;;;;;;;;;;5053562;28;20221;-78
2022/09/22 03:01:47;;;;;;;4.60;2.93;;;;;;;;;;5087524;28;20181;-78
2022/09/22 03:04:13;;;;;;;4.30;2.87;;;;;;;;;;5087683;28;20180;-78
2022/09/22 03:06:39;;;;;;;4.17;2.77;;;;;;;;;;5083413;28;20188;-78
2022/09/22 03:09:05;;;;;;;5.90;3.10;;;;;;;;;;5068674;28;20739;-79
2022/09/22 03:11:31;;;;;;;6.00;3.17;;;;;;;;;;5087368;28;20185;-79
2022/09/22 03:13:58;;;;;;;3.00;2.73;;;;;;;;;;5079475;28;20177;-78
2022/09/22 03:16:24;;;;;;;4.73;3.20;;;;;;;;;;5085683;28;20264;-78
2022/09/22 03:18:50;;;;;;;4.33;3.13;;;;;;;;;;5086898;28;20196;-78
2022/09/22 03:21:16;;;;;;;4.40;3.10;;;;;;;;;;5068855;28;20241;-78
2022/09/22 03:23:42;;;;;;;3.60;3.10;;;;;;;;;;5080660;28;20179;-78
2022/09/22 03:26:08;;;;;;;3.73;3.03;;;;;;;;;;5079399;28;20177;-78
2022/09/22 03:28:34;;;;;;;5.27;3.00;;;;;;;;;;5061754;28;20724;-78
2022/09/22 03:31:00;;;;;;;3.70;2.90;;;;;;;;;;5061658;28;20204;-78
2022/09/22 03:33:27;;;;;;;4.07;3.07;;;;;;;;;;5065431;28;20202;-78
2022/09/22 03:35:53;;;;;;;5.73;3.20;;;;;;;;;;5085220;28;20184;-78
2022/09/22 03:38:19;;;;;;;5.27;3.10;;;;;;;;;;5070475;28;20173;-78
2022/09/22 03:40:51;;;;;;;4.70;3.60;;;;;;;;;;5078935;28;20308;-78
2022/09/22 03:43:18;;;;;;;6.77;3.90;;;;;;;;;;5087347;28;20184;-78
2022/09/22 03:45:44;;;;;;;6.27;3.27;;;;;;;;;;5082274;28;20215;-78
2022/09/22 03:48:10;;;;;;;4.07;3.27;;;;;;;;;;5082841;28;20181;-78
2022/09/22 03:50:37;;;;;;;6.33;3.77;;;;;;;;;;5087310;28;20192;-78
2022/09/22 03:53:03;;;;;;;4.40;3.50;;;;;;;;;;5086629;28;20655;-78
2022/09/22 03:55:29;;;;;;;4.60;3.77;;;;;;;;;;5079602;28;20717;-78
2022/09/22 03:57:55;;;;;;;5.63;3.60;;;;;;;;;;5065937;28;20233;-78
2022/09/22 04:00:21;;;;;;;6.10;4.03;;;;;;;;;;5065495;28;20338;-78
2022/09/22 04:02:47;;;;;;;5.17;3.80;;;;;;;;;;5082220;28;20191;-78
2022/09/22 04:05:14;;;;;;;4.70;3.20;;;;;;;;;;5086381;28;20176;-78
2022/09/22 04:07:40;;;;;;;4.43;3.53;;;;;;;;;;5072436;28;21128;-78
2022/09/22 04:10:07;;;;;;;4.63;3.53;;;;;;;;;;5062099;28;20393;-78
2022/09/22 04:12:33;;;;;;;3.97;3.20;;;;;;;;;;5078485;28;20240;-78
2022/09/22 04:15:00;;;;;;;5.50;4.00;;;;;;;;;;5086366;28;20177;-78
2022/09/22 04:17:26;;;;;;;5.93;4.60;;;;;;;;;;5083131;28;20187;-78
2022/09/22 04:19:54;;;;;;;6.80;5.20;;;;;;;;;;5074649;28;20215;-78
2022/09/22 04:22:20;;;;;;;8.07;5.37;;;;;;;;;;5089573;28;20188;-78
2022/09/22 04:24:46;;;;;;;8.37;5.53;;;;;;;;;;5044165;28;20443;-78
2022/09/22 04:27:12;;;;;;;7.93;5.50;;;;;;;;;;5090088;28;20181;-79
2022/09/22 04:29:38;;;;;;;5.73;4.27;;;;;;;;;;5073369;28;20209;-79
2022/09/22 04:32:04;;;;;;;5.70;4.50;;;;;;;;;;5089279;28;20173;-78
2022/09/22 04:34:31;;;;;;;6.03;3.60;;;;;;;;;;5072422;28;20207;-77
2022/09/22 04:36:57;;;;;;;7.00;3.93;;;;;;;;;;5091198;28;20254;-80
2022/09/22 04:39:23;;;;;;;4.97;3.90;;;;;;;;;;5089100;28;20211;-77
2022/09/22 04:41:49;;;;;;;6.23;3.70;;;;;;;;;;5088689;28;20184;-77
2022/09/22 04:44:15;;;;;;;6.37;3.73;;;;;;;;;;5072173;28;20953;-77
2022/09/22 04:46:44;;;;;;;6.77;4.37;;;;;;;;;;5076733;28;20245;-78
2022/09/22 04:49:11;;;;;;;5.47;4.50;;;;;;;;;;5085472;28;20419;-78
2022/09/22 04:51:37;;;;;;;6.73;4.50;;;;;;;;;;5029730;28;20640;-78
2022/09/22 04:54:04;;;;;;;5.40;3.93;;;;;;;;;;5062164;28;20227;-78
2022/09/22 04:56:30;;;;;;;5.07;3.97;;;;;;;;;;5047134;28;20188;-77
2022/09/22 04:58:56;;;;;;;5.13;3.87;;;;;;;;;;5054483;28;20212;-77
2022/09/22 05:01:26;;;;;;;4.83;3.60;;;;;;;;;;5061353;28;20181;-77
2022/09/22 05:03:52;;;;;;;5.23;4.17;;;;;;;;;;5080182;28;20173;-77
2022/09/22 05:06:19;;;;;;;5.47;3.80;;;;;;;;;;5072031;28;20193;-77
2022/09/22 05:08:45;;;;;;;5.60;3.90;;;;;;;;;;5080292;28;20665;-77
2022/09/22 05:11:11;;;;;;;4.00;3.60;;;;;;;;;;5078799;28;20701;-77
2022/09/22 05:13:39;;;;;;;4.23;3.70;;;;;;;;;;5078819;28;20181;-77
2022/09/22 05:16:06;;;;;;;4.20;3.73;;;;;;;;;;5061719;28;20184;-77
2022/09/22 05:18:32;;;;;;;6.70;4.23;;;;;;;;;;5049142;28;20212;-78
2022/09/22 05:20:59;;;;;;;6.47;4.00;;;;;;;;;;5066447;28;20196;-77
2022/09/22 05:23:25;;;;;;;5.87;3.90;;;;;;;;;;5048303;28;20189;-77
2022/09/22 05:25:51;;;;;;;6.83;3.83;;;;;;;;;;5063214;28;20169;-77
2022/09/22 05:28:19;;;;;;;8.10;3.73;;;;;;;;;;5060756;28;20234;-78
2022/09/22 05:30:46;;;;;;;5.77;4.00;;;;;;;;;;5079711;28;20212;-77
2022/09/22 05:33:12;;;;;;;7.00;4.23;;;;;;;;;;5078252;28;20734;-78
2022/09/22 05:35:38;;;;;;;6.80;4.10;;;;;;;;;;5063104;28;20188;-79
2022/09/22 05:38:04;;;;;;;5.67;4.00;;;;;;;;;;5061665;28;20168;-77
2022/09/22 05:40:30;;;;;;;6.47;3.90;;;;;;;;;;5080341;28;20177;-79
2022/09/22 05:42:57;;;;;;;6.60;3.90;;;;;;;;;;5082620;28;20712;-79
2022/09/22 05:45:23;;;;;;;7.37;4.80;;;;;;;;;;5080045;28;20216;-79
2022/09/22 05:47:49;;;;;;;4.83;4.07;;;;;;;;;;5085388;28;20212;-79
2022/09/22 05:50:16;;;;;;;4.93;4.00;;;;;;;;;;5083254;28;20201;-81
2022/09/22 05:52:43;;;;;;;6.30;4.40;;;;;;;;;;5065046;28;20188;-78
2022/09/22 05:55:09;;;;;;;6.47;4.43;;;;;;;;;;5084833;28;20222;-78
2022/09/22 05:57:36;;;;;;;6.10;4.70;;;;;;;;;;5082802;28;20172;-78
2022/09/22 06:00:03;;;;;;;6.50;4.10;;;;;;;;;;5084210;28;20848;-78
2022/09/22 06:02:37;;;;;;;3.83;3.47;;;;;;;;;;5062229;28;20181;-78
2022/09/22 06:05:04;;;;;;;5.43;3.70;;;;;;;;;;5068177;28;20557;-78
2022/09/22 06:07:30;;;;;;;8.20;4.00;;;;;;;;;;5044281;28;20173;-78
2022/09/22 06:09:56;;;;;;;5.97;4.07;;;;;;;;;;5080040;28;20259;-81
2022/09/22 06:12:22;;;;;;;6.87;4.63;;;;;;;;;;5079830;28;20264;-79
2022/09/22 06:14:48;;;;;;;6.30;4.43;;;;;;;;;;5081339;28;20200;-80
2022/09/22 06:17:15;;;;;;;7.97;4.50;;;;;;;;;;5048978;28;20185;-82
2022/09/22 06:19:42;;;;;;;5.27;4.60;;;;;;;;;;5054437;28;20247;-81
2022/09/22 06:22:10;;;;;;;7.50;4.50;;;;;;;;;;5059550;28;20196;-82
2022/09/22 06:24:36;;;;;;;6.73;5.30;;;;;;;;;;5088980;28;20271;-82
2022/09/22 06:27:02;;;;;;;4.70;4.03;;;;;;;;;;5087199;28;20196;-82
2022/09/22 06:29:30;;;;;;;5.00;4.10;;;;;;;;;;5069431;28;20213;-82
2022/09/22 06:32:00;;;;;;;7.53;4.47;;;;;;;;;;5083520;28;20168;-81
2022/09/22 06:34:26;;;;;;;7.13;4.87;;;;;;;;;;5068878;28;20203;-82
2022/09/22 06:36:55;;;;;;;4.97;4.50;;;;;;;;;;5087973;28;20161;-82
2022/09/22 06:39:22;;;;;;;6.03;4.20;;;;;;;;;;5090140;28;20197;-82
2022/09/22 06:41:48;;;;;;;6.40;4.20;;;;;;;;;;5066540;28;20183;-81
2022/09/22 06:44:14;;;;;;;6.80;4.00;;;;;;;;;;5045375;28;20180;-82
2022/09/22 06:46:41;;;;;;;4.47;3.90;;;;;;;;;;5083347;28;20222;-82
2022/09/22 06:49:07;;;;;;;5.03;4.20;;;;;;;;;;5055398;28;20212;-81
2022/09/22 06:51:34;;;;;;;4.37;3.80;;;;;;;;;;5084403;28;20667;-81
2022/09/22 06:54:05;;;;;;;6.33;3.93;;;;;;;;;;5065985;28;21482;-81
2022/09/22 06:56:38;;;;;;;4.70;4.20;;;;;;;;;;5064713;28;20707;-80
2022/09/22 06:59:11;;;;;;;4.53;3.87;;;;;;;;;;5060884;28;20233;-81
2022/09/22 07:01:38;;;;;;;6.63;4.50;;;;;;;;;;5081360;28;20173;-80
2022/09/22 07:04:05;;;;;;;4.93;3.97;;;;;;;;;;5063801;28;20211;-80
2022/09/22 07:06:31;;;;;;;4.97;4.23;;;;;;;;;;5078790;28;20271;-80
2022/09/22 07:08:57;;;;;;;5.40;4.30;;;;;;;;;;5073897;28;20204;-80
2022/09/22 07:11:24;;;;;;;5.03;4.53;;;;;;;;;;5063457;28;20852;-81
2022/09/22 07:13:52;;;;;;;5.50;4.50;;;;;;;;;;5077605;28;20268;-81
2022/09/22 07:16:19;;;;;;;5.23;4.10;;;;;;;;;;5057679;28;20245;-81
2022/09/22 07:18:46;;;;;;;7.57;4.63;;;;;;;;;;5062659;28;20205;-81
2022/09/22 07:21:14;;;;;;;6.40;4.40;;;;;;;;;;5059710;28;20192;-80
2022/09/22 07:23:40;;;;;;;4.60;4.10;;;;;;;;;;5086146;28;20217;-80
2022/09/22 07:26:09;;;;;;;5.77;4.67;;;;;;;;;;5082096;28;20269;-81
2022/09/22 07:28:35;;;;;;;5.43;4.37;;;;;;;;;;5062295;28;20232;-81
2022/09/22 07:31:04;;;;;;;4.93;4.40;;;;;;;;;;5082289;28;20691;-81
2022/09/22 07:33:34;;;;;;;8.03;4.47;;;;;;;;;;5064625;28;20196;-81
2022/09/22 07:36:07;;;;;;;6.90;4.67;;;;;;;;;;5086313;28;20184;-81
2022/09/22 07:38:35;;;;;;;5.93;4.40;;;;;;;;;;5046855;28;20204;-81
2022/09/22 07:41:02;;;;;;;5.47;4.53;;;;;;;;;;5086120;28;20571;-81
2022/09/22 07:43:29;;;;;;;6.87;4.63;;;;;;;;;;5083657;28;20203;-81
2022/09/22 07:45:56;;;;;;;6.80;4.50;;;;;;;;;;5061732;28;20192;-81
2022/09/22 07:48:36;;;;;;;5.53;4.33;;;;;;;;;;5056946;28;20184;-81
2022/09/22 07:51:07;;;;;;;5.67;4.90;;;;;;;;;;5046648;28;20200;-81
2022/09/22 07:53:34;;;;;;;5.03;4.40;;;;;;;;;;5058590;28;20197;-81
2022/09/22 07:56:11;;;;;;;6.93;4.67;;;;;;;;;;5070944;28;20658;-81
2022/09/22 07:58:48;;;;;;;6.20;4.70;;;;;;;;;;5085829;28;20219;-81
2022/09/22 08:01:15;;;;;;;6.97;4.50;;;;;;;;;;5067250;28;20177;-81
2022/09/22 08:03:41;;;;;;;5.93;4.73;;;;;;;;;;5089008;28;20177;-81
2022/09/22 08:06:10;;;;;;;5.80;4.50;;;;;;;;;;5070949;28;20533;-81
2022/09/22 08:08:37;;;;;;;4.80;4.10;;;;;;;;;;5065623;28;20258;-80
2022/09/22 08:11:07;;;;;;;4.93;4.10;;;;;;;;;;5082826;28;20196;-81
2022/09/22 08:13:33;;;;;;;5.00;4.30;;;;;;;;;;5068979;28;20173;-80
2022/09/22 08:16:02;;;;;;;7.17;4.20;;;;;;;;;;5063576;28;20654;-81
2022/09/22 08:18:29;;;;;;;5.10;4.60;;;;;;;;;;5068226;28;20201;-81
2022/09/22 08:20:55;;;;;;;6.80;4.70;;;;;;;;;;5088116;28;20195;-81
2022/09/22 08:23:22;;;;;;;5.20;4.70;;;;;;;;;;5073488;28;20258;-80
2022/09/22 08:25:49;;;;;;;6.00;4.40;;;;;;;;;;5085216;28;20196;-80
2022/09/22 08:28:15;;;;;;;5.00;4.00;;;;;;;;;;5089184;28;20564;-80
2022/09/22 08:30:46;;;;;;;6.97;4.77;;;;;;;;;;5085916;28;20215;-80
2022/09/22 08:33:12;;;;;;;4.40;4.00;;;;;;;;;;5066515;28;20187;-81
2022/09/22 08:35:38;;;;;;;4.80;3.90;;;;;;;;;;5082859;28;20191;-80
2022/09/22 08:38:04;;;;;;;5.03;4.00;;;;;;;;;;5066667;28;20208;-81
2022/09/22 08:40:31;;;;;;;4.30;3.67;;;;;;;;;;5056746;28;20176;-81
2022/09/22 08:42:59;;;;;;;5.70;3.83;;;;;;;;;;5087691;28;20185;-83
2022/09/22 08:45:37;;;;;;;4.93;3.90;;;;;;;;;;5085012;28;20660;-83
2022/09/22 08:53:48;;;;;;;4.30;3.90;;;;;;;;;;5085436;28;20169;-80
2022/09/22 08:56:17;;;;;;;4.37;3.97;;;;;;;;;;5063693;28;20177;-83
2022/09/22 08:58:54;;;;;;;5.73;4.20;;;;;;;;;;5066424;28;20219;-80
2022/09/22 09:01:38;;;;;;;6.17;3.90;;;;;;;;;;5064166;28;20181;-80
2022/09/22 09:04:17;;;;;;;5.17;3.80;;;;;;;;;;5081448;28;20302;-80
2022/09/22 09:06:43;;;;;;;6.30;4.20;;;;;;;;;;5079784;28;20173;-80
2022/09/22 09:09:28;;;;;;;6.10;3.57;;;;;;;;;;5061458;28;20201;-80
2022/09/22 09:12:05;;;;;;;4.50;3.53;;;;;;;;;;5083126;28;20214;-80
2022/09/22 09:14:50;;;;;;;5.00;3.57;;;;;;;;;;5077964;28;20189;-80
2022/09/22 09:17:25;;;;;;;5.93;3.93;;;;;;;;;;5075845;28;20169;-83
2022/09/22 09:20:03;;;;;;;4.80;3.40;;;;;;;;;;5049276;28;20575;-82
2022/09/22 09:22:39;;;;;;;4.33;3.73;;;;;;;;;;5066271;28;20180;-82
2022/09/22 09:25:07;;;;;;;4.17;3.63;;;;;;;;;;5066806;28;20278;-82
2022/09/22 09:27:39;;;;;;;4.37;3.90;;;;;;;;;;5062538;28;20213;-83
2022/09/22 09:30:09;;;;;;;6.37;3.40;;;;;;;;;;5079984;28;20220;-82
2022/09/22 09:32:41;;;;;;;4.43;3.70;;;;;;;;;;5087340;28;20180;-82
2022/09/22 09:35:11;;;;;;;4.53;3.77;;;;;;;;;;5071448;28;20185;-83
2022/09/22 09:37:37;;;;;;;5.03;3.80;;;;;;;;;;5057521;28;20644;-82
2022/09/22 09:40:04;;;;;;;4.20;3.40;;;;;;;;;;5073250;28;20307;-82
2022/09/22 09:42:32;;;;;;;4.53;3.30;;;;;;;;;;5073096;28;20191;-82
2022/09/22 09:45:01;;;;;;;4.67;3.40;;;;;;;;;;5066078;28;20562;-82
2022/09/22 09:47:33;;;;;;;5.13;3.77;;;;;;;;;;5088283;28;20605;-83
2022/09/22 09:49:59;;;;;;;4.50;3.33;;;;;;;;;;5068513;28;20582;-78
2022/09/22 09:52:27;;;;;;;4.20;3.10;;;;;;;;;;5072290;28;20215;-84
2022/09/22 09:54:53;;;;;;;3.80;2.90;;;;;;;;;;5047944;28;20666;-81
2022/09/22 09:57:21;;;;;;;4.60;3.03;;;;;;;;;;5072910;28;20261;-85
2022/09/22 10:02:49;;;;;;;4.17;2.77;;;;;;;;;;5079526;28;20219;-81
2022/09/22 10:05:15;;;;;;;4.97;2.87;;;;;;;;;;5047299;28;20914;-81
2022/09/22 10:07:43;;;;;;;3.67;2.77;;;;;;;;;;5042660;28;20181;-83
2022/09/22 10:10:22;;;;;;;3.37;2.87;;;;;;;;;;5054041;28;20248;-80
2022/09/22 10:12:49;;;;;;;2.87;2.57;;;;;;;;;;5090478;28;20211;-81
2022/09/22 10:15:23;;;;;;;3.67;2.70;;;;;;;;;;5086706;28;20823;-82
2022/09/22 10:17:50;;;;;;;6.83;2.90;;;;;;;;;;5075817;28;20203;-81
2022/09/22 10:20:32;;;;;;;4.50;2.70;;;;;;;;;;5057462;28;20243;-82
2022/09/22 10:23:19;;;;;;;3.63;2.70;;;;;;;;;;5077453;28;20204;-81
2022/09/22 10:25:45;;;;;;;4.07;2.60;;;;;;;;;;5065259;28;20920;-81
2022/09/22 10:28:12;;;;;;;4.83;2.40;;;;;;;;;;5039431;28;20173;-79
2022/09/22 10:30:38;;;;;;;2.77;2.20;;;;;;;;;;5087349;28;20299;-80
2022/09/22 10:33:06;;;;;;;3.70;2.70;;;;;;;;;;5071618;28;20176;-77
2022/09/22 10:35:33;;;;;;;3.40;2.40;;;;;;;;;;5080329;28;20177;-78
2022/09/22 10:38:08;;;;;;;2.77;2.30;;;;;;;;;;5086396;28;20325;-80
2022/09/22 10:40:37;;;;;;;3.07;2.33;;;;;;;;;;5080071;28;20261;-79
2022/09/22 10:43:06;;;;;;;4.77;2.03;;;;;;;;;;5078488;28;20188;-77
2022/09/22 10:45:47;;;;;;;3.00;2.20;;;;;;;;;;5070148;28;20196;-79
2022/09/22 10:48:20;;;;;;;2.67;2.10;;;;;;;;;;5088702;28;20180;-76
2022/09/22 10:51:09;;;;;;;2.57;2.23;;;;;;;;;;5083406;28;20212;-79
2022/09/22 10:53:44;;;;;;;3.80;2.20;;;;;;;;;;5080036;28;20189;-76
2022/09/22 10:56:34;;;;;;;3.33;2.40;;;;;;;;;;5076513;28;20172;-77
2022/09/22 10:59:12;;;;;;;3.90;2.03;;;;;;;;;;5088733;28;20256;-76
2022/09/22 11:01:47;;;;;;;3.13;2.00;;;;;;;;;;5084515;28;20263;-76
2022/09/22 11:04:16;;;;;;;3.13;2.10;;;;;;;;;;5078028;28;20180;-77
2022/09/22 11:13:05;;;;;;;6.67;2.90;;;;;;;;;;5077205;28;20254;-77
2022/09/22 11:15:53;;;;;;;2.70;2.00;;;;;;;;;;5037752;28;20869;-77
2022/09/22 11:18:19;;;;;;;4.63;2.00;;;;;;;;;;5078906;28;20656;-77
2022/09/22 11:20:48;;;;;;;3.73;2.00;;;;;;;;;;5063740;28;20201;-77
2022/09/22 11:23:26;;;;;;;2.43;1.70;;;;;;;;;;5078819;28;20181;-77
2022/09/22 11:26:03;;;;;;;2.30;1.70;;;;;;;;;;5075153;28;20185;-77
2022/09/22 11:28:37;;;;;;;7.17;1.80;;;;;;;;;;5076071;28;20209;-77
2022/09/22 11:31:04;;;;;;;3.20;1.60;;;;;;;;;;5080323;28;20215;-77
2022/09/22 11:33:51;;;;;;;2.10;1.60;;;;;;;;;;5081077;28;20184;-77
2022/09/22 11:36:18;;;;;;;2.03;1.80;;;;;;;;;;5066189;28;20180;-78
2022/09/22 11:38:53;;;;;;;5.17;1.83;;;;;;;;;;5062473;28;20213;-77
2022/09/22 11:41:30;;;;;;;1.87;1.43;;;;;;;;;;5082071;28;20177;-78
2022/09/22 11:43:56;;;;;;;1.73;1.57;;;;;;;;;;5069872;28;20559;-78
2022/09/22 11:46:29;;;;;;;4.17;1.90;;;;;;;;;;5081754;28;20180;-78
2022/09/22 11:49:14;;;;;;;2.80;2.00;;;;;;;;;;5062842;28;20319;-80
2022/09/22 11:51:43;;;;;;;2.73;1.83;;;;;;;;;;5068585;28;20180;-78
2022/09/22 11:54:28;;;;;;;3.27;1.73;;;;;;;;;;5086681;28;20559;-77
2022/09/22 11:57:08;;;;;;;2.33;1.80;;;;;;;;;;5083536;28;20206;-78
2022/09/22 11:59:37;;;;;;;2.10;1.80;;;;;;;;;;5079309;28;20207;-80
2022/09/22 12:02:13;;;;;;;2.27;1.90;;;;;;;;;;5070086;28;20205;-82
2022/09/22 12:04:42;;;;;;;3.23;2.00;;;;;;;;;;5065590;28;20194;-79
2022/09/22 12:07:15;;;;;;;2.60;1.73;;;;;;;;;;5083711;28;20181;-79
2022/09/22 12:09:45;;;;;;;2.20;1.60;;;;;;;;;;5062702;28;20209;-78
2022/09/22 12:12:15;;;;;;;3.37;1.80;;;;;;;;;;5082735;28;20268;-83
2022/09/22 12:14:42;;;;;;;2.57;1.90;;;;;;;;;;5059422;28;20189;-78
2022/09/22 12:17:21;;;;;;;2.43;1.70;;;;;;;;;;5067078;28;20173;-78
2022/09/22 12:19:50;;;;;;;1.80;1.50;;;;;;;;;;5063887;28;20875;-78
2022/09/22 12:22:26;;;;;;;3.73;2.00;;;;;;;;;;5048501;28;20257;-78
2022/09/22 12:24:52;;;;;;;2.90;1.83;;;;;;;;;;5079739;28;20188;-79
2022/09/22 12:27:23;;;;;;;1.97;1.60;;;;;;;;;;5088428;28;20169;-80
2022/09/22 12:30:12;;;;;;;2.30;1.73;;;;;;;;;;5066276;28;22015;-79
2022/09/22 12:32:40;;;;;;;1.70;1.50;;;;;;;;;;5083368;28;20173;-78
2022/09/22 12:35:16;;;;;;;4.00;1.80;;;;;;;;;;5077852;28;20619;-79
2022/09/22 12:37:43;;;;;;;2.00;1.40;;;;;;;;;;5082195;28;20318;-80
2022/09/22 12:40:29;;;;;;;5.10;1.80;;;;;;;;;;5074738;28;20197;-81
2022/09/22 12:42:56;;;;;;;2.07;1.60;;;;;;;;;;5058378;28;20190;-79
2022/09/22 12:45:26;;;;;;;2.77;1.60;;;;;;;;;;5083359;28;20192;-82
2022/09/22 12:47:54;;;;;;;3.10;1.50;;;;;;;;;;5053281;28;20196;-82
2022/09/22 12:50:23;;;;;;;2.97;1.50;;;;;;;;;;5056170;28;20222;-84
2022/09/22 12:52:50;;;;;;;2.80;1.30;;;;;;;;;;5065936;28;20188;-84
2022/09/22 12:55:28;;;;;;;2.60;1.50;;;;;;;;;;5080268;28;20687;-84
2022/09/22 12:57:57;;;;;;;4.27;1.70;;;;;;;;;;5066082;28;20199;-85
2022/09/22 13:00:49;;;;;;;1.47;1.20;;;;;;;;;;5081969;28;20209;-86
2022/09/22 13:03:24;;;;;;;1.80;1.50;;;;;;;;;;5041665;28;20193;-85
2022/09/22 13:05:58;;;;;;;1.90;1.50;;;;;;;;;;5081358;28;20176;-85
2022/09/22 13:08:24;;;;;;;1.97;1.50;;;;;;;;;;5044899;28;20189;-85
2022/09/22 13:10:52;;;;;;;2.60;1.30;;;;;;;;;;5050942;28;20330;-84
2022/09/22 13:13:23;;;;;;;1.70;1.47;;;;;;;;;;5073093;28;20221;-82
2022/09/22 13:15:49;;;;;;;2.37;1.37;;;;;;;;;;5085249;28;20673;-84
2022/09/22 13:18:29;;;;;;;2.20;1.20;;;;;;;;;;5082950;28;20189;-78
2022/09/22 13:20:59;;;;;;;1.73;1.43;;;;;;;;;;5076583;28;20195;-78
2022/09/22 13:23:26;;;;;;;2.60;1.40;;;;;;;;;;5076092;28;20190;-78
2022/09/22 13:25:52;;;;;;;4.40;1.20;;;;;;;;;;5077395;28;20205;-78
2022/09/22 13:28:20;;;;;;;2.27;1.70;;;;;;;;;;5074472;28;20693;-78
2022/09/22 13:30:57;;;;;;;3.40;1.43;;;;;;;;;;5078124;28;20207;-78
2022/09/22 13:33:24;;;;;;;1.40;1.20;;;;;;;;;;5078622;28;20175;-77
2022/09/22 13:35:57;;;;;;;2.37;1.87;;;;;;;;;;5077241;28;20195;-78
2022/09/22 13:38:23;;;;;;;2.60;1.40;;;;;;;;;;5079490;28;20814;-77
2022/09/22 13:40:51;;;;;;;1.40;1.30;;;;;;;;;;5077316;28;20202;-77
2022/09/22 13:43:36;;;;;;;1.67;1.20;;;;;;;;;;5058424;28;20198;-77
2022/09/22 13:46:03;;;;;;;1.20;1.10;;;;;;;;;;5076287;28;20196;-77
2022/09/22 13:48:32;;;;;;;1.87;1.20;;;;;;;;;;5058063;28;20209;-76
2022/09/22 13:51:00;;;;;;;1.17;1.07;;;;;;;;;;5076137;28;20201;-77
2022/09/22 13:53:27;;;;;;;1.73;1.10;;;;;;;;;;5076398;28;20190;-77
2022/09/22 13:55:53;;;;;;;1.10;1.00;;;;;;;;;;5075102;28;20185;-77
2022/09/22 13:58:39;;;;;;;1.77;1.13;;;;;;;;;;5076298;28;20270;-77
2022/09/22 14:01:16;;;;;;;1.57;1.17;;;;;;;;;;5077825;28;20192;-77
2022/09/22 14:03:43;;;;;;;1.30;1.10;;;;;;;;;;5076062;28;20180;-77
2022/09/22 14:06:13;;;;;;;2.10;1.30;;;;;;;;;;5074491;28;20757;-76
2022/09/22 14:08:40;;;;;;;2.13;1.17;;;;;;;;;;5073337;28;20292;-77
2022/09/22 14:11:08;;;;;;;1.13;1.00;;;;;;;;;;5077030;28;20330;-77
2022/09/22 14:13:55;;;;;;;1.30;1.20;;;;;;;;;;5073936;28;20283;-77
2022/09/22 14:16:28;;;;;;;2.70;1.67;;;;;;;;;;5073745;28;20204;-77
2022/09/22 14:19:01;;;;;;;2.57;1.40;;;;;;;;;;5075163;28;20201;-77
2022/09/22 14:21:27;;;;;;;1.53;1.23;;;;;;;;;;5075084;28;20208;-77
2022/09/22 14:23:55;;;;;;;1.27;1.17;;;;;;;;;;5073445;28;20220;-77
2022/09/22 14:26:26;;;;;;;2.60;1.33;;;;;;;;;;5073511;28;20174;-78
2022/09/22 14:28:53;;;;;;;1.67;1.10;;;;;;;;;;5074517;28;20204;-78
2022/09/22 14:31:24;;;;;;;1.70;1.00;;;;;;;;;;5073125;28;20219;-78
2022/09/22 14:33:50;;;;;;;2.00;1.20;;;;;;;;;;5076240;28;20192;-77
2022/09/22 14:36:21;;;;;;;1.77;1.17;;;;;;;;;;5075842;28;20211;-78
2022/09/22 14:38:48;;;;;;;1.83;1.00;;;;;;;;;;5075356;28;20718;-77
2022/09/22 14:41:20;;;;;;;1.50;1.10;;;;;;;;;;5075436;28;20672;-78
2022/09/22 14:43:49;;;;;;;2.37;1.20;;;;;;;;;;5075575;28;20721;-77
2022/09/22 14:46:54;;;;;;;1.17;1.00;;;;;;;;;;5076962;28;20749;-78
2022/09/22 14:49:40;;;;;;;1.80;1.10;;;;;;;;;;4977043;28;20285;-77
2022/09/22 14:52:14;;;;;;;1.20;1.10;;;;;;;;;;4975850;28;20372;-77
2022/09/22 14:54:42;;;;;;;1.80;1.17;;;;;;;;;;5028587;28;20207;-77
2022/09/22 14:57:08;;;;;;;1.17;0.97;;;;;;;;;;5074061;28;20256;-77
2022/09/22 15:02:31;;;;;;;1.50;1.20;;;;;;;;;;5073789;28;20192;-77
2022/09/22 15:05:02;;;;;;;1.73;1.63;;;;;;;;;;5075246;28;20188;-77
2022/09/22 15:07:28;;;;;;;2.17;1.20;;;;;;;;;;5075011;28;20683;-77
2022/09/22 15:09:59;;;;;;;2.30;1.90;;;;;;;;;;5075971;28;20786;-77
2022/09/22 15:12:42;;;;;;;2.67;1.37;;;;;;;;;;5075948;28;20219;-77
2022/09/22 15:15:16;;;;;;;3.47;1.40;;;;;;;;;;5075449;28;20188;-77
2022/09/22 15:20:33;;;;;;;1.47;1.30;;;;;;;;;;5077831;28;20921;-76